Time;durP1;ratioP1;P1;durP2;ratioP2;P2;SDS_P1;SDS_P2;PMS_P1;PMS_P2;Temp;Humidity;BMP_temperature;BMP_pressure;BME280_temperature;BME280_humidity;BME280_pressure;Samples;Min_cycle;Max_cycle;Signal;HPM_P1;HPM_P2
2023/01/05 00:01:01;;;;;;;9.40;7.10;;;;;;;13.35;100.00;101890.78;2100746;28;20044;-72
2023/01/05 00:02:24;;;;;;;8.80;6.53;;;;;;;13.34;100.00;101896.94;2089523;28;20045;-73
2023/01/05 00:03:45;;;;;;;8.00;5.88;;;;;;;13.37;100.00;101893.47;2086283;28;20439;-73
2023/01/05 00:05:09;;;;;;;8.57;6.30;;;;;;;13.42;100.00;101897.13;2091033;28;20058;-73
2023/01/05 00:06:32;;;;;;;7.95;5.80;;;;;;;13.40;100.00;101891.78;2094675;28;20044;-72
2023/01/05 00:07:53;;;;;;;9.85;6.50;;;;;;;13.39;100.00;101895.28;2091486;28;20106;-72
2023/01/05 00:09:18;;;;;;;8.15;6.07;;;;;;;13.39;100.00;101892.63;2099330;28;20039;-73
2023/01/05 00:22:33;;;;;;;10.90;6.28;;;;;;;13.33;100.00;101896.91;2080143;28;20049;-72
2023/01/05 00:23:56;;;;;;;8.02;5.45;;;;;;;13.28;100.00;101895.91;2083097;28;20052;-72
2023/01/05 00:25:21;;;;;;;8.65;5.80;;;;;;;13.29;100.00;101892.41;2081430;28;20600;-72
2023/01/05 00:26:42;;;;;;;11.07;7.95;;;;;;;13.26;100.00;101895.88;2099014;28;20059;-72
2023/01/05 00:28:06;;;;;;;9.93;7.55;;;;;;;13.22;100.00;101894.03;2089544;28;20107;-73
2023/01/05 00:29:27;;;;;;;12.32;9.15;;;;;;;13.20;100.00;101890.44;2089934;28;20133;-72
2023/01/05 00:30:50;;;;;;;11.13;6.80;;;;;;;13.16;100.00;101881.53;2094136;28;20415;-72
2023/01/05 00:32:11;;;;;;;11.90;6.65;;;;;;;13.17;100.00;101887.72;2086800;28;20111;-72
2023/01/05 00:33:33;;;;;;;11.00;7.78;;;;;;;13.18;100.00;101880.66;2088348;28;20783;-72
2023/01/05 00:34:55;;;;;;;8.60;6.43;;;;;;;13.21;100.00;101884.28;2085373;28;20049;-72
2023/01/05 00:36:18;;;;;;;;;;;;;;;13.19;100.00;101879.81;2083955;28;20140;-71
2023/01/05 00:37:39;;;;;;;9.27;6.30;;;;;;;13.22;100.00;101879.88;2083814;28;20003;-72
2023/01/05 00:39:01;;;;;;;9.15;6.70;;;;;;;13.25;100.00;101880.84;2085916;28;20083;-71
2023/01/05 00:40:25;;;;;;;12.15;8.65;;;;;;;13.28;100.00;101880.91;2091376;28;20051;-72
2023/01/05 00:41:47;;;;;;;11.32;6.70;;;;;;;13.28;100.00;101877.34;2094126;28;20603;-72
2023/01/05 00:43:09;;;;;;;11.35;8.10;;;;;;;13.27;100.00;101876.44;2085783;28;20068;-71
2023/01/05 00:44:31;;;;;;;16.30;12.63;;;;;;;13.27;100.00;101878.19;2099145;28;21496;-72
2023/01/05 00:45:53;;;;;;;21.52;16.17;;;;;;;13.24;100.00;101876.41;2087256;28;20780;-72
2023/01/05 00:47:15;;;;;;;23.00;17.92;;;;;;;13.23;100.00;101877.25;2095012;28;20056;-71
2023/01/05 00:48:37;;;;;;;20.92;15.70;;;;;;;13.19;100.00;101872.75;2092079;28;20139;-71
2023/01/05 00:49:58;;;;;;;17.05;12.90;;;;;;;13.16;100.00;101870.03;2093966;28;20074;-71
2023/01/05 00:51:21;;;;;;;22.25;15.13;;;;;;;13.15;100.00;101869.13;2092790;28;20045;-71
2023/01/05 00:52:44;;;;;;;23.35;15.75;;;;;;;13.18;100.00;101872.72;2085009;28;20103;-72
2023/01/05 00:54:07;;;;;;;21.13;14.48;;;;;;;13.20;100.00;101873.63;2090055;28;20052;-72
2023/01/05 00:55:31;;;;;;;17.80;11.90;;;;;;;13.19;100.00;101867.44;2095076;28;20057;-72
2023/01/05 00:56:53;;;;;;;13.02;9.55;;;;;;;13.23;100.00;101873.69;2086899;28;20040;-72
2023/01/05 00:58:15;;;;;;;14.70;11.00;;;;;;;13.22;100.00;101871.91;2090078;28;20071;-72
2023/01/05 00:59:36;;;;;;;12.68;9.23;;;;;;;13.17;100.00;101871.81;2094802;28;20044;-72
2023/01/05 01:00:59;;;;;;;12.68;10.10;;;;;;;13.12;100.00;101870.78;2089901;28;20476;-72
2023/01/05 01:02:21;;;;;;;15.98;10.48;;;;;;;13.09;100.00;101865.41;2094428;28;20485;-72
2023/01/05 01:03:43;;;;;;;19.25;13.93;;;;;;;13.09;100.00;101865.41;2093833;28;20049;-72
2023/01/05 01:05:07;;;;;;;22.17;14.40;;;;;;;13.07;100.00;101867.09;2094142;28;20101;-72
2023/01/05 01:06:30;;;;;;;16.23;11.15;;;;;;;13.07;100.00;101861.81;2103277;28;20056;-72
2023/01/05 01:07:53;;;;;;;15.77;11.63;;;;;;;13.07;100.00;101861.81;2088358;28;20045;-72
2023/01/05 01:09:16;;;;;;;16.55;11.88;;;;;;;13.07;100.00;101854.75;2098154;28;20051;-71
2023/01/05 01:10:42;;;;;;;15.60;11.02;;;;;;;13.09;100.00;101852.16;2088341;28;20544;-72
2023/01/05 01:12:05;;;;;;;18.70;15.40;;;;;;;13.07;100.00;101857.41;2099001;28;20036;-72
2023/01/05 01:13:27;;;;;;;16.38;13.70;;;;;;;13.01;100.00;101853.72;2088078;28;20072;-72
2023/01/05 01:14:50;;;;;;;15.48;11.25;;;;;;;12.96;100.00;101847.41;2093536;28;20135;-72
2023/01/05 01:16:15;;;;;;;15.95;11.65;;;;;;;12.93;100.00;101857.97;2086569;28;20507;-72
2023/01/05 01:17:38;;;;;;;14.60;10.23;;;;;;;12.91;100.00;101855.28;2099677;28;20052;-72
2023/01/05 01:18:59;;;;;;;14.00;9.73;;;;;;;12.93;100.00;101850.88;2088732;28;20040;-72
2023/01/05 01:20:22;;;;;;;13.77;9.43;;;;;;;12.96;100.00;101860.66;2094179;28;20258;-72
2023/01/05 01:21:46;;;;;;;12.50;9.13;;;;;;;13.01;100.00;101859.00;2102280;28;20096;-72
2023/01/05 01:23:09;;;;;;;11.38;8.68;;;;;;;13.08;100.00;101853.00;2096367;28;20063;-72
2023/01/05 01:24:32;;;;;;;11.40;8.77;;;;;;;13.14;100.00;101858.47;2093912;28;20047;-72
2023/01/05 01:25:57;;;;;;;11.90;7.80;;;;;;;13.19;100.00;101851.53;2085574;28;20106;-72
2023/01/05 01:27:19;;;;;;;11.48;7.75;;;;;;;13.24;100.00;101848.97;2091473;28;20044;-72
2023/01/05 01:28:41;;;;;;;10.95;6.50;;;;;;;13.26;100.00;101845.47;2094638;28;20048;-72
2023/01/05 01:30:04;;;;;;;7.75;5.63;;;;;;;13.27;100.00;101844.63;2086110;28;20056;-72
2023/01/05 01:31:25;;;;;;;7.82;5.95;;;;;;;13.29;100.00;101844.66;2093882;28;20807;-72
2023/01/05 01:32:48;;;;;;;9.40;6.70;;;;;;;13.34;100.00;101849.22;2089005;28;20045;-72
2023/01/05 01:34:11;;;;;;;10.52;6.55;;;;;;;13.39;100.00;101839.59;2091657;28;20083;-72
2023/01/05 01:35:37;;;;;;;10.23;7.20;;;;;;;13.43;100.00;101833.50;2086858;28;20041;-71
2023/01/05 01:37:00;;;;;;;10.32;7.32;;;;;;;13.45;100.00;101836.19;2085452;28;20053;-72
2023/01/05 01:38:26;;;;;;;10.45;7.07;;;;;;;13.46;100.00;101844.16;2086103;28;20045;-72
2023/01/05 01:39:49;;;;;;;11.55;7.57;;;;;;;13.47;100.00;101837.09;2091626;28;20062;-72
2023/01/05 01:41:14;;;;;;;10.20;7.30;;;;;;;13.48;100.00;101839.78;2092558;28;20071;-72
2023/01/05 01:42:37;;;;;;;10.82;7.18;;;;;;;13.46;100.00;101835.31;2091955;28;20058;-72
2023/01/05 01:43:59;;;;;;;10.88;7.10;;;;;;;13.47;100.00;101837.09;2100360;28;20036;-72
2023/01/05 01:45:26;;;;;;;10.50;7.30;;;;;;;13.45;100.00;101829.13;2088899;28;20480;-72
2023/01/05 01:46:47;;;;;;;8.98;7.03;;;;;;;13.43;100.00;101833.50;2085997;28;20094;-72
2023/01/05 01:48:12;;;;;;;12.88;7.45;;;;;;;13.45;100.00;101834.44;2094400;28;20389;-72
2023/01/05 01:49:34;;;;;;;8.60;6.57;;;;;;;13.47;100.00;101834.44;2078404;28;20095;-72
2023/01/05 01:51:05;;;;;;;9.88;6.70;;;;;;;13.51;100.00;101834.56;2098176;28;20072;-71
2023/01/05 01:52:29;;;;;;;11.30;7.43;;;;;;;13.52;100.00;101841.63;2091361;28;20183;-72
2023/01/05 01:53:56;;;;;;;8.88;6.45;;;;;;;13.56;100.00;101834.66;2092511;28;20213;-72
2023/01/05 01:55:18;;;;;;;10.85;6.93;;;;;;;13.60;100.00;101835.59;2086623;28;20111;-73
2023/01/05 01:56:44;;;;;;;;;;;;;;;13.55;100.00;101835.50;2090935;28;20048;-72
2023/01/05 01:58:12;;;;;;;8.93;6.53;;;;;;;13.55;100.00;101830.19;2094104;28;19954;-72
2023/01/05 01:59:35;;;;;;;8.20;5.93;;;;;;;13.56;100.00;101826.69;2096344;28;20095;-72
2023/01/05 02:01:00;;;;;;;8.15;6.20;;;;;;;13.57;100.00;101832.03;2101440;28;20040;-72
2023/01/05 02:02:22;;;;;;;9.82;6.47;;;;;;;13.61;100.00;101822.38;2087167;28;20552;-73
2023/01/05 02:03:46;;;;;;;10.45;7.78;;;;;;;13.68;100.00;101839.31;2084662;28;20142;-73
2023/01/05 02:05:11;;;;;;;18.60;13.75;;;;;;;13.71;100.00;101832.31;2085605;28;20044;-73
2023/01/05 02:06:34;;;;;;;13.52;10.85;;;;;;;13.74;100.00;101829.72;2088145;28;20059;-72
2023/01/05 02:07:57;;;;;;;16.58;10.30;;;;;;;13.77;100.00;101835.09;2073694;28;20107;-72
2023/01/05 02:09:19;;;;;;;14.07;10.73;;;;;;;13.78;100.00;101835.97;2082451;28;20096;-72
2023/01/05 02:10:56;;;;;;;15.55;10.68;;;;;;;13.76;100.00;101824.44;2091417;28;20106;-72
2023/01/05 02:12:38;;;;;;;13.48;9.40;;;;;;;13.71;100.00;101815.50;2090323;28;20060;-72
2023/01/05 02:14:12;;;;;;;13.93;10.07;;;;;;;13.68;100.00;101818.97;2098673;28;20048;-72
2023/01/05 02:15:44;;;;;;;12.20;9.23;;;;;;;13.68;100.00;101821.63;2086839;28;20144;-72
2023/01/05 02:17:16;;;;;;;11.88;8.80;;;;;;;13.69;100.00;101823.41;2091462;28;20127;-72
2023/01/05 02:18:55;;;;;;;13.55;9.27;;;;;;;13.68;100.00;101821.63;2103904;28;20464;-72
2023/01/05 02:20:39;;;;;;;11.75;8.73;;;;;;;13.64;100.00;101816.25;2086157;28;20160;-72
2023/01/05 02:22:21;;;;;;;10.95;8.23;;;;;;;13.59;100.00;101815.25;2095107;28;20048;-72
2023/01/05 02:24:24;;;;;;;11.77;8.40;;;;;;;13.55;100.00;101812.53;2097925;28;20040;-72
2023/01/05 02:26:11;;;;;;;19.40;10.43;;;;;;;13.57;100.00;101810.81;2094435;28;20049;-72
2023/01/05 02:27:48;;;;;;;11.60;9.23;;;;;;;13.57;100.00;101802.84;2097732;28;20060;-72
2023/01/05 02:29:37;;;;;;;12.60;9.38;;;;;;;13.58;100.00;101806.41;2086997;28;20045;-72
2023/01/05 02:31:20;;;;;;;13.38;9.48;;;;;;;13.60;100.00;101806.41;2105091;28;20043;-72
2023/01/05 02:32:55;;;;;;;12.13;8.27;;;;;;;13.64;100.00;101802.97;2086713;28;20536;-72
2023/01/05 02:34:23;;;;;;;14.00;8.07;;;;;;;13.68;100.00;101796.84;2086683;28;20057;-73
2023/01/05 02:35:54;;;;;;;11.70;8.02;;;;;;;13.68;100.00;101797.75;2094187;28;20044;-72
2023/01/05 02:37:24;;;;;;;13.05;8.27;;;;;;;13.64;100.00;101795.00;2086902;28;20083;-72
2023/01/05 02:38:57;;;;;;;12.90;9.48;;;;;;;13.62;100.00;101791.41;2090095;28;20040;-72
2023/01/05 02:40:27;;;;;;;11.32;8.82;;;;;;;13.64;100.00;101795.00;2085229;28;20459;-72
2023/01/05 02:41:56;;;;;;;13.20;9.57;;;;;;;13.66;100.00;101788.84;2093510;28;20489;-72
2023/01/05 02:43:19;;;;;;;13.63;9.45;;;;;;;13.67;100.00;101788.00;2094012;28;20139;-72
2023/01/05 02:44:42;;;;;;;14.30;9.98;;;;;;;13.71;100.00;101791.63;2092839;28;20078;-72
2023/01/05 02:46:03;;;;;;;15.50;10.60;;;;;;;13.71;100.00;101789.84;2094060;28;20527;-72
2023/01/05 02:47:41;;;;;;;12.77;8.80;;;;;;;13.71;100.00;101795.16;2085643;28;20056;-72
2023/01/05 02:49:06;;;;;;;15.40;9.25;;;;;;;13.71;100.00;101788.97;2094589;28;20574;-72
2023/01/05 02:50:34;;;;;;;11.85;7.70;;;;;;;13.71;100.00;101794.28;2084579;28;20048;-73
2023/01/05 02:52:00;;;;;;;12.10;7.85;;;;;;;13.70;100.00;101789.81;2092168;28;20148;-72
2023/01/05 02:53:28;;;;;;;10.38;8.27;;;;;;;13.69;100.00;101794.22;2085900;28;20049;-73
2023/01/05 02:54:55;;;;;;;10.13;7.72;;;;;;;13.68;100.00;101796.84;2100251;28;20339;-72
2023/01/05 02:56:24;;;;;;;12.27;8.15;;;;;;;13.70;100.00;101796.03;2087060;28;20141;-73
2023/01/05 02:57:51;;;;;;;12.43;8.27;;;;;;;13.71;100.00;101791.63;2094617;28;20102;-72
2023/01/05 02:59:22;;;;;;;13.13;8.18;;;;;;;13.70;100.00;101790.72;2085942;28;20045;-73
2023/01/05 03:00:48;;;;;;;13.55;7.57;;;;;;;13.72;100.00;101796.94;2083007;28;20099;-73
2023/01/05 03:02:16;;;;;;;10.48;7.85;;;;;;;13.77;100.00;101789.97;2098538;28;20654;-73
2023/01/05 03:03:44;;;;;;;9.80;6.90;;;;;;;13.80;100.00;101786.47;2091262;28;20040;-72
2023/01/05 03:05:10;;;;;;;9.90;7.30;;;;;;;13.85;100.00;101792.75;2086285;28;20111;-72
2023/01/05 03:06:45;;;;;;;12.27;7.25;;;;;;;13.89;100.00;101787.53;2093685;28;20582;-72
2023/01/05 03:08:20;;;;;;;10.98;6.93;;;;;;;13.92;100.00;101784.94;2092693;28;20455;-72
2023/01/05 03:09:45;;;;;;;10.38;7.57;;;;;;;13.99;100.00;101788.59;2088023;28;20052;-72
2023/01/05 03:14:42;;;;;;;10.65;7.25;;;;;;;14.02;100.00;101793.06;2102941;28;20101;-72
2023/01/05 03:16:07;;;;;;;10.55;7.63;;;;;;;14.03;100.00;101792.22;2087146;28;20451;-72
2023/01/05 03:17:34;;;;;;;13.07;8.05;;;;;;;14.03;100.00;101789.56;2083311;28;20041;-73
2023/01/05 03:20:46;;;;;;;13.50;7.97;;;;;;;14.03;100.00;101793.09;2095551;28;20041;-73
2023/01/05 03:36:12;;;;;;;13.00;8.05;;;;;;;14.18;100.00;101811.03;2088404;28;20051;-72
2023/01/05 03:37:37;;;;;;;11.35;8.32;;;;;;;14.18;100.00;101806.63;2085100;28;20547;-72
2023/01/05 03:39:03;;;;;;;10.15;8.13;;;;;;;14.15;100.00;101797.72;2091061;28;20072;-73
2023/01/05 03:40:29;;;;;;;13.57;9.15;;;;;;;14.10;100.00;101800.31;2086159;28;20056;-72
2023/01/05 03:41:53;;;;;;;10.07;7.03;;;;;;;14.10;100.00;101800.31;2088034;28;20122;-71
2023/01/05 03:43:17;;;;;;;11.60;7.95;;;;;;;14.08;100.00;101802.03;2086301;28;20037;-72
2023/01/05 03:44:44;;;;;;;10.85;7.75;;;;;;;14.11;100.00;101807.38;2082509;28;20061;-72
2023/01/05 03:46:10;;;;;;;10.13;7.80;;;;;;;14.10;100.00;101802.97;2094406;28;20036;-72
2023/01/05 03:47:33;;;;;;;9.68;6.80;;;;;;;14.11;100.00;101806.53;2087872;28;20076;-72
2023/01/05 03:48:56;;;;;;;12.40;9.93;;;;;;;14.12;100.00;101809.19;2089895;28;20678;-72
2023/01/05 03:50:21;;;;;;;12.70;9.00;;;;;;;14.09;100.00;101805.59;2087257;28;20068;-72
2023/01/05 03:51:43;;;;;;;10.13;7.05;;;;;;;14.06;100.00;101803.75;2093641;28;20044;-73
2023/01/05 03:53:06;;;;;;;11.15;6.82;;;;;;;14.12;100.00;101809.19;2096799;28;20137;-72
2023/01/05 03:54:29;;;;;;;10.05;7.18;;;;;;;14.16;100.00;101805.72;2089586;28;20597;-72
2023/01/05 03:55:51;;;;;;;9.85;6.78;;;;;;;14.20;100.00;101804.00;2091042;28;20118;-73
2023/01/05 03:57:13;;;;;;;9.02;6.88;;;;;;;14.24;100.00;101804.09;2085438;28;20037;-72
2023/01/05 03:58:36;;;;;;;13.95;9.60;;;;;;;14.26;100.00;101802.34;2079779;28;20041;-72
2023/01/05 03:59:57;;;;;;;10.52;8.20;;;;;;;14.27;100.00;101804.16;2081757;28;20102;-72
2023/01/05 04:01:20;;;;;;;9.07;6.60;;;;;;;14.28;100.00;101802.38;2082631;28;20061;-72
2023/01/05 04:02:41;;;;;;;11.00;7.57;;;;;;;14.29;100.00;101804.19;2093615;28;20080;-72
2023/01/05 04:04:05;;;;;;;9.25;7.28;;;;;;;14.29;100.00;101804.19;2083937;28;20057;-72
2023/01/05 04:05:28;;;;;;;9.75;7.35;;;;;;;14.30;100.00;101809.53;2090035;28;20085;-72
2023/01/05 04:06:51;;;;;;;9.10;6.80;;;;;;;14.32;100.00;101806.88;2085171;28;20033;-72
2023/01/05 04:08:12;;;;;;;12.63;7.43;;;;;;;14.34;100.00;101805.16;2091311;28;20084;-73
2023/01/05 04:09:34;;;;;;;10.65;7.28;;;;;;;14.36;100.00;101808.72;2092154;28;20491;-72
2023/01/05 04:10:56;;;;;;;9.75;6.88;;;;;;;14.37;100.00;101802.56;2087350;28;20068;-72
2023/01/05 04:12:19;;;;;;;13.73;7.40;;;;;;;14.39;100.00;101803.50;2089120;28;20172;-73
2023/01/05 04:13:41;;;;;;;9.68;6.38;;;;;;;14.41;100.00;101806.19;2083618;28;20037;-72
2023/01/05 04:15:03;;;;;;;9.48;7.05;;;;;;;14.44;100.00;101807.09;2088766;28;20139;-72
2023/01/05 04:16:27;;;;;;;9.02;6.95;;;;;;;14.44;100.00;101800.94;2092951;28;20389;-72
2023/01/05 04:17:52;;;;;;;9.57;6.70;;;;;;;14.43;100.00;101804.44;2085721;28;20056;-72
2023/01/05 04:19:14;;;;;;;10.70;6.35;;;;;;;14.44;100.00;101804.44;2091764;28;20107;-72
2023/01/05 04:20:38;;;;;;;12.55;6.80;;;;;;;14.44;100.00;101800.94;2087144;28;20053;-72
2023/01/05 04:22:01;;;;;;;9.93;7.22;;;;;;;14.41;100.00;101808.84;2090117;28;20041;-72
2023/01/05 04:23:26;;;;;;;9.38;6.45;;;;;;;14.39;100.00;101802.59;2084061;28;20060;-72
2023/01/05 04:24:50;;;;;;;9.95;6.53;;;;;;;14.39;100.00;101806.16;2093203;28;20037;-72
2023/01/05 04:26:14;;;;;;;10.20;6.50;;;;;;;14.39;100.00;101808.81;2084818;28;20455;-73
2023/01/05 04:27:35;;;;;;;10.18;6.82;;;;;;;14.38;100.00;101807.00;2092316;28;20087;-72
2023/01/05 04:29:00;;;;;;;9.50;5.75;;;;;;;14.38;100.00;101811.44;2089075;28;20076;-72
2023/01/05 04:30:23;;;;;;;9.35;6.72;;;;;;;14.38;100.00;101807.00;2094747;28;20045;-72
2023/01/05 04:31:45;;;;;;;8.63;5.72;;;;;;;14.39;100.00;101802.59;2085429;28;20053;-72
2023/01/05 04:33:09;;;;;;;11.07;7.22;;;;;;;14.39;100.00;101813.22;2092548;28;20055;-73
2023/01/05 04:34:31;;;;;;;10.60;6.75;;;;;;;14.39;100.00;101805.25;2083343;28;20049;-73
2023/01/05 04:35:57;;;;;;;10.50;8.00;;;;;;;14.42;100.00;101810.63;2086080;28;20037;-73
2023/01/05 04:37:22;;;;;;;10.63;6.68;;;;;;;14.43;100.00;101810.66;2092064;28;20094;-72
2023/01/05 04:38:45;;;;;;;10.48;6.85;;;;;;;14.47;100.00;101816.91;2085294;28;20059;-73
2023/01/05 04:40:07;;;;;;;9.80;6.32;;;;;;;14.51;100.00;101809.00;2099679;28;20032;-72
2023/01/05 04:41:38;;;;;;;11.30;6.53;;;;;;;14.53;100.00;101814.34;2089574;28;20047;-72
2023/01/05 04:43:00;;;;;;;12.15;6.88;;;;;;;14.53;100.00;101814.34;2086869;28;20053;-73
2023/01/05 04:44:23;;;;;;;9.98;6.45;;;;;;;14.52;100.00;101816.09;2085558;28;20033;-72
2023/01/05 04:45:47;;;;;;;13.57;9.65;;;;;;;14.53;100.00;101807.28;2086189;28;20098;-72
2023/01/05 04:47:10;;;;;;;13.13;7.15;;;;;;;14.55;100.00;101812.63;2090125;28;20476;-73
2023/01/05 04:48:36;;;;;;;10.30;6.75;;;;;;;14.56;100.00;101807.34;2092940;28;20040;-73
2023/01/05 04:49:58;;;;;;;11.65;7.20;;;;;;;14.58;100.00;101813.53;2094128;28;20053;-72
2023/01/05 04:51:23;;;;;;;10.70;6.55;;;;;;;14.59;100.00;101809.13;2086549;28;20052;-72
2023/01/05 04:52:46;;;;;;;11.73;6.97;;;;;;;14.59;100.00;101818.00;2090935;28;20041;-72
2023/01/05 04:54:07;;;;;;;10.68;6.80;;;;;;;14.61;100.00;101815.38;2086608;28;20053;-72
2023/01/05 04:55:30;;;;;;;10.27;6.90;;;;;;;14.60;100.00;101819.78;2086722;28;20037;-72
2023/01/05 04:56:52;;;;;;;11.60;7.13;;;;;;;14.62;100.00;101814.50;2086230;28;20547;-72
2023/01/05 04:58:15;;;;;;;10.48;6.80;;;;;;;14.63;100.00;101814.53;2090709;28;20058;-72
2023/01/05 04:59:37;;;;;;;10.02;6.55;;;;;;;14.63;100.00;101817.19;2093477;28;20131;-72
2023/01/05 05:01:00;;;;;;;8.93;6.88;;;;;;;14.65;100.00;101819.84;2093033;28;20052;-72
2023/01/05 05:02:25;;;;;;;9.23;6.75;;;;;;;14.66;100.00;101819.00;2093712;28;20056;-72
2023/01/05 05:03:46;;;;;;;9.20;7.40;;;;;;;14.66;100.00;101816.34;2086304;28;20052;-72
2023/01/05 05:05:12;;;;;;;10.93;6.80;;;;;;;14.65;100.00;101819.84;2080716;28;20138;-72
2023/01/05 05:06:35;;;;;;;9.73;6.40;;;;;;;14.66;100.00;101824.31;2097004;28;20079;-72
2023/01/05 05:07:58;;;;;;;10.48;6.50;;;;;;;14.66;100.00;101824.31;2088536;28;20045;-72
2023/01/05 05:09:23;;;;;;;10.50;6.80;;;;;;;14.66;100.00;101826.97;2086604;28;20048;-73
2023/01/05 05:10:45;;;;;;;12.90;8.65;;;;;;;14.62;100.00;101828.69;2086299;28;20064;-72
2023/01/05 05:12:08;;;;;;;11.98;8.30;;;;;;;14.60;100.00;101834.84;2092833;28;20055;-72
2023/01/05 05:13:30;;;;;;;12.48;9.00;;;;;;;14.54;100.00;101840.94;2084725;28;20061;-72
2023/01/05 05:14:54;;;;;;;10.85;7.95;;;;;;;14.45;100.00;101831.91;2092145;28;20037;-72
2023/01/05 05:16:15;;;;;;;11.75;8.27;;;;;;;14.35;100.00;101833.50;2077471;28;20052;-72
2023/01/05 05:17:40;;;;;;;14.88;8.85;;;;;;;14.26;100.00;101831.56;2088328;28;20752;-73
2023/01/05 05:19:05;;;;;;;13.70;9.18;;;;;;;14.24;100.00;101841.25;2085442;28;20045;-72
2023/01/05 05:20:28;;;;;;;15.10;8.55;;;;;;;14.26;100.00;101844.84;2082920;28;20040;-72
2023/01/05 05:21:52;;;;;;;14.38;9.80;;;;;;;14.29;100.00;101834.31;2081745;28;20122;-72
2023/01/05 05:23:14;;;;;;;28.63;17.67;;;;;;;14.33;100.00;101840.53;2090722;28;20544;-72
2023/01/05 05:24:37;;;;;;;20.05;13.13;;;;;;;14.38;100.00;101838.00;2088222;28;20144;-72
2023/01/05 05:25:58;;;;;;;27.80;17.95;;;;;;;14.41;100.00;101838.06;2088210;28;20427;-72
2023/01/05 05:27:21;;;;;;;24.88;15.95;;;;;;;14.43;100.00;101839.88;2087863;28;20049;-72
2023/01/05 05:28:43;;;;;;;17.50;11.52;;;;;;;14.44;100.00;101839.00;2099382;28;20051;-72
2023/01/05 05:30:07;;;;;;;15.50;8.48;;;;;;;14.45;100.00;101842.53;2088453;28;20110;-72
2023/01/05 05:31:29;;;;;;;14.93;9.27;;;;;;;14.48;100.00;101837.31;2087757;28;20055;-72
2023/01/05 05:32:51;;;;;;;14.77;8.65;;;;;;;14.51;100.00;101846.19;2095393;28;20044;-72
2023/01/05 05:34:14;;;;;;;14.10;9.27;;;;;;;14.56;100.00;101841.00;2094243;28;20590;-72
2023/01/05 05:35:35;;;;;;;15.43;9.57;;;;;;;14.59;100.00;101847.22;2094655;28;20528;-73
2023/01/05 05:36:59;;;;;;;13.55;9.38;;;;;;;14.60;100.00;101843.72;2093689;28;20135;-72
2023/01/05 05:38:20;;;;;;;14.90;8.75;;;;;;;14.62;100.00;101841.09;2094023;28;20044;-72
2023/01/05 05:39:43;;;;;;;14.95;9.77;;;;;;;14.64;100.00;101836.66;2093894;28;20056;-72
2023/01/05 05:41:05;;;;;;;14.90;8.75;;;;;;;14.68;100.00;101838.53;2084820;28;20129;-73
2023/01/05 05:42:28;;;;;;;17.27;10.00;;;;;;;14.68;100.00;101838.53;2089744;28;20041;-72
2023/01/05 05:43:49;;;;;;;14.50;9.18;;;;;;;14.70;100.00;101837.66;2092621;28;20059;-72
2023/01/05 05:45:12;;;;;;;14.73;9.00;;;;;;;14.73;100.00;101847.47;2087454;28;20095;-72
2023/01/05 05:46:35;;;;;;;14.77;9.32;;;;;;;14.77;100.00;101843.97;2091589;28;20090;-72
2023/01/05 05:47:59;;;;;;;13.48;8.93;;;;;;;14.79;100.00;101847.56;2088789;28;20079;-72
2023/01/05 05:49:22;;;;;;;14.10;9.38;;;;;;;14.81;100.00;101848.47;2103089;28;20052;-72
2023/01/05 05:50:44;;;;;;;15.93;8.70;;;;;;;14.83;100.00;101846.75;2085255;28;20033;-72
2023/01/05 05:52:08;;;;;;;14.77;9.25;;;;;;;14.86;100.00;101843.22;2097220;28;20640;-72
2023/01/05 05:53:31;;;;;;;15.35;9.20;;;;;;;14.88;100.00;101846.81;2082229;28;20037;-73
2023/01/05 05:54:53;;;;;;;16.55;9.95;;;;;;;14.89;100.00;101843.28;2093496;28;20106;-72
2023/01/05 05:56:16;;;;;;;17.48;11.07;;;;;;;14.90;100.00;101845.09;2094161;28;20049;-72
2023/01/05 05:57:38;;;;;;;16.95;11.15;;;;;;;14.90;100.00;101845.09;2092341;28;20040;-72
2023/01/05 05:58:59;;;;;;;17.42;9.05;;;;;;;14.89;100.00;101848.59;2084829;28;20570;-72
2023/01/05 06:00:22;;;;;;;16.95;10.32;;;;;;;14.90;100.00;101853.91;2091754;28;20056;-72
2023/01/05 06:01:43;;;;;;;14.98;10.13;;;;;;;14.90;100.00;101851.25;2084274;28;20053;-72
2023/01/05 06:03:06;;;;;;;13.65;9.85;;;;;;;14.92;100.00;101851.28;2078486;28;20402;-72
2023/01/05 06:04:28;;;;;;;11.88;8.60;;;;;;;14.93;100.00;101848.66;2090435;28;20452;-72
2023/01/05 06:05:50;;;;;;;12.30;7.53;;;;;;;14.96;100.00;101851.38;2087602;28;20053;-73
2023/01/05 06:07:14;;;;;;;13.43;8.38;;;;;;;14.97;100.00;101847.84;2085910;28;20045;-72
2023/01/05 06:08:36;;;;;;;12.32;8.23;;;;;;;14.99;100.00;101850.53;2086172;28;20053;-73
2023/01/05 06:09:59;;;;;;;14.60;8.40;;;;;;;14.99;100.00;101846.09;2092880;28;20047;-72
2023/01/05 06:11:21;;;;;;;12.00;7.85;;;;;;;15.02;100.00;101850.59;2093619;28;20098;-73
2023/01/05 06:12:44;;;;;;;13.43;8.32;;;;;;;15.04;100.00;101855.03;2094491;28;20059;-72
2023/01/05 06:14:07;;;;;;;15.05;8.18;;;;;;;15.07;100.00;101849.78;2101743;28;20048;-72
2023/01/05 06:15:28;;;;;;;14.90;9.30;;;;;;;15.09;100.00;101847.16;2087129;28;20036;-72
2023/01/05 06:16:51;;;;;;;13.70;9.10;;;;;;;15.12;100.00;101847.16;2099954;28;20048;-72
2023/01/05 06:18:14;;;;;;;12.27;9.43;;;;;;;15.13;100.00;101844.53;2090963;28;20082;-72
2023/01/05 06:19:36;;;;;;;11.80;9.02;;;;;;;15.13;100.00;101841.88;2104995;28;20048;-72
2023/01/05 06:20:59;;;;;;;14.02;9.70;;;;;;;15.14;100.00;101846.34;2093967;28;20041;-72
2023/01/05 06:22:23;;;;;;;14.32;9.50;;;;;;;15.15;100.00;101845.47;2086092;28;20486;-72
2023/01/05 06:23:45;;;;;;;13.10;9.68;;;;;;;15.16;100.00;101846.38;2092689;28;20071;-72
2023/01/05 06:25:08;;;;;;;14.98;10.00;;;;;;;15.15;100.00;101840.16;2093398;28;20055;-72
2023/01/05 06:26:31;;;;;;;13.48;9.90;;;;;;;15.16;100.00;101841.91;2096811;28;20036;-73
2023/01/05 06:27:53;;;;;;;14.25;9.85;;;;;;;15.18;100.00;101846.34;2094042;28;20052;-72
2023/01/05 06:29:14;;;;;;;11.50;9.50;;;;;;;15.20;100.00;101849.94;2100122;28;20078;-72
2023/01/05 06:30:37;;;;;;;14.55;9.65;;;;;;;15.21;100.00;101839.34;2088247;28;20049;-73
2023/01/05 06:31:59;;;;;;;15.57;9.07;;;;;;;15.24;100.00;101846.44;2094606;28;20457;-73
2023/01/05 06:33:22;;;;;;;15.68;9.57;;;;;;;15.26;100.00;101842.03;2087415;28;20158;-73
2023/01/05 06:34:44;;;;;;;12.77;8.60;;;;;;;15.28;100.00;101846.53;2090663;28;20392;-73
2023/01/05 06:36:08;;;;;;;14.35;9.18;;;;;;;15.33;100.00;101849.25;2094225;28;20045;-73
2023/01/05 06:37:32;;;;;;;11.57;8.88;;;;;;;15.37;100.00;101848.41;2093875;28;20102;-73
2023/01/05 06:38:55;;;;;;;14.52;9.60;;;;;;;15.41;100.00;101844.91;2092297;28;20047;-72
2023/01/05 06:40:17;;;;;;;14.23;8.70;;;;;;;15.46;100.00;101843.22;2084161;28;20098;-73
2023/01/05 06:41:39;;;;;;;19.60;12.23;;;;;;;15.50;100.00;101839.69;2087009;28;20068;-73
2023/01/05 06:43:01;;;;;;;15.70;10.73;;;;;;;15.54;100.00;101852.22;2101503;28;20039;-73
2023/01/05 06:44:24;;;;;;;13.00;8.85;;;;;;;15.55;100.00;101843.38;2093208;28;20705;-74
2023/01/05 06:45:47;;;;;;;11.57;7.10;;;;;;;15.58;100.00;101850.47;2096574;28;20090;-74
2023/01/05 06:47:09;;;;;;;11.52;7.68;;;;;;;15.60;100.00;101844.31;2093937;28;20048;-73
2023/01/05 06:48:31;;;;;;;11.45;7.63;;;;;;;15.64;100.00;101846.13;2101497;28;20408;-73
2023/01/05 06:49:54;;;;;;;15.02;8.98;;;;;;;15.67;100.00;101838.19;2087552;28;20146;-73
2023/01/05 06:51:17;;;;;;;13.35;9.90;;;;;;;15.71;100.00;101850.66;2091568;28;20041;-73
2023/01/05 06:52:41;;;;;;;12.13;8.25;;;;;;;15.73;100.00;101846.25;2094158;28;20051;-73
2023/01/05 06:54:04;;;;;;;12.10;8.23;;;;;;;15.73;100.00;101845.34;2087743;28;20049;-73
2023/01/05 06:55:27;;;;;;;19.52;11.32;;;;;;;15.74;100.00;101842.72;2093939;28;20056;-73